METAR Data
IDs: Format: Raw Decoded Include TAF

Data at: 1030 UTC 18 Jan 2019

PAHP 180856Z AUTO 35007KT 10SM FEW047 M08/M12 A3002 RMK AO2 SLP205 T10781122 410501111 51014 FZRANO
PAHP 180756Z AUTO 33006KT 10SM SCT028 OVC045 M08/M12 A3001 RMK AO2 SLP201 T10831117 FZRANO
PAHP 180656Z AUTO 01006KT 10SM OVC047 M10/M13 A3000 RMK AO2 SLP196 T11001128 FZRANO
PAHP 180556Z AUTO 35005KT 10SM CLR M11/M14 A2998 RMK AO2 SLP191 60000 T11061139 11056 21106 53014 FZRANO
PAHP 180356Z AUTO 35007KT 10SM CLR M09/M13 A2995 RMK AO2 SLP180 T10891128 FZRANO
PAHP 180256Z AUTO 32011KT 9SM CLR M07/M12 A2994 RMK AO2 SNB43E54 SLP177 P0000 60000 T10671117 53025 FZRANO
PAHP 180056Z AUTO 32015KT 10SM CLR M06/M11 A2989 RMK AO2 SLP158 T10561106 FZRANO
PAHP 172256Z AUTO 31017KT 10SM BKN110 M06/M10 A2985 RMK AO2 SLP147 T10561100 FZRANO
PAHP 172156Z AUTO 31017KT 10SM BKN120 M06/M10 A2984 RMK AO2 SLP143 T10561100 FZRANO
PAHP 172056Z AUTO 32018KT 10SM CLR M06/M10 A2983 RMK AO2 SLP138 60000 T10611100 53017 FZRANO
PAHP 171956Z AUTO 31016KT 10SM FEW009 M06/M08 A2980 RMK AO2 UPB15E25 SLP129 P0000 T10611078 FZRANO
PAHP 171952Z AUTO 30016KT 10SM FEW009 M06/M08 A2980 RMK AO2 UPB15E25 P0000 FZRANO
PAHP 171856Z AUTO 30014KT 10SM OVC011 M06/M07 A2978 RMK AO2 UPB43E53 SLP121 P0000 T10561072 FZRANO
PAHP 171829Z AUTO 31014KT 10SM OVC011 M06/M07 A2976 RMK AO2 FZRANO
PAHP 171756Z AUTO 30014KT 10SM BKN009 OVC014 M06/M07 A2975 RMK AO2 UPE14 SLP112 P0000 60000 T10561067 11050 21083 51011 FZRANO
PAHP 171741Z AUTO 30015KT 10SM FEW009 OVC014 M05/M06 A2975 RMK AO2 UPE14 P0000 FZRANO
PAHP 171649Z AUTO 29014KT 5SM UP BR BKN009 BKN013 OVC018 M05/M06 A2973 RMK AO2 UPB1558SNE1558 P0000 FZRANO
PAHP 171622Z AUTO 30013KT 3SM UP BR FEW009 OVC018 M05/M06 A2972 RMK AO2 UPB1558SNE1558 P0000 FZRANO
PAHP 171603Z AUTO 30011KT 3SM UP BR OVC020 M05/M06 A2972 RMK AO2 UPB1558SNE1558 P0000 FZRANO
PAHP 171556Z AUTO 31010KT 2 1/2SM -SN BR OVC020 M06/M07 A2972 RMK AO2 SLP101 P0000 T10561067 FZRANO
PAHP 171456Z AUTO 30010KT 3SM -SN BR FEW009 OVC018 M06/M07 A2971 RMK AO2 UPE10SNB10 SLP098 P0000 60000 T10561067 51017 FZRANO
PAHP 171448Z AUTO 30012KT 4SM -SN BR FEW009 OVC020 M06/M07 A2971 RMK AO2 UPE10SNB10 P0000 FZRANO
PAHP 171441Z AUTO 31011KT 3SM -SN BR OVC022 M06/M07 A2971 RMK AO2 UPE10SNB10 P0000 FZRANO
PAHP 171420Z AUTO 31012KT 2 1/2SM -SN BR SCT011 OVC024 M05/M07 A2970 RMK AO2 UPE10SNB10 P0000 FZRANO
PAHP 171256Z AUTO 11003KT 10SM OVC011 M07/M08 A2969 RMK AO2 SLP090 T10721083 FZRANO
PAHP 171156Z AUTO 24004KT 10SM OVC013 M08/M10 A2966 RMK AO2 SLP082 T10831100 11083 21094 50003 FZRANO
PAHP 171133Z AUTO 14003KT 10SM OVC013 M08/M11 A2967 RMK AO2 FZRANO
PAHP 171056Z AUTO 10003KT 10SM OVC015 M09/M11 A2966 RMK AO2 SLP083 T10891106 FZRANO
PAHP 171010Z AUTO 08006KT 10SM OVC015 M08/M11 A2966 RMK AO2 FZRANO
PAHP 170956Z AUTO 00000KT 10SM OVC013 M09/M11 A2965 RMK AO2 SLP079 T10891111 FZRANO
PAHP 170856Z AUTO 11004KT 10SM OVC011 M09/M11 A2965 RMK AO2 SLP078 T10891111 400001100 51009 FZRANO
PAHP 170821Z AUTO 10008KT 10SM OVC011 M09/M12 A2965 RMK AO2 FZRANO
PAHP 170756Z AUTO 11004KT 10SM OVC009 M09/M12 A2964 RMK AO2 CIG 008V011 SLP074 T10891117 FZRANO
PAHP 170751Z AUTO 10004KT 10SM OVC009 M09/M11 A2964 RMK AO2 CIG 008V013 FZRANO
PAHP 170556Z AUTO 11008KT 10SM OVC009 M09/M12 A2962 RMK AO2 SLP067 60000 T10941117 11083 21100 53002 FZRANO
PAHP 170456Z AUTO 11010KT 10SM OVC009 M09/M11 A2962 RMK AO2 UPE23 SLP069 P0000 T10891106 FZRANO
PAHP 170436Z AUTO 10011KT 10SM OVC009 M09/M11 A2962 RMK AO2 UPE23 P0000 FZRANO
PAHP 170356Z AUTO 12007KT 10SM UP OVC013 M09/M11 A2961 RMK AO2 SLP064 P0000 T10891106 FZRANO
PAHP 170303Z AUTO 11008KT 10SM UP FEW017 SCT023 OVC030 M09/M11 A2962 RMK AO2 P0000 FZRANO
PAHP 170256Z AUTO 12007KT 9SM UP FEW017 BKN023 OVC038 M09/M11 A2961 RMK AO2 SLP066 P0000 60000 T10891111 51002 FZRANO
PAHP 170209Z AUTO 11009KT 4SM UP BR BKN019 OVC029 M09/M11 A2961 RMK AO2 P0000 FZRANO
PAHP 170156Z AUTO 12008KT 2 1/2SM UP BR BKN019 BKN024 OVC029 M09/M11 A2961 RMK AO2 UPB18SNB07E18 SLP065 P0000 T10891106 FZRANO
PAHP 170056Z AUTO 12007KT 10SM BKN017 BKN025 OVC032 M08/M11 A2962 RMK AO2 SLP066 T10831111 FZRANO